sensor_id;sensor_type;location;lat;lon;timestamp;pressure;altitude;pressure_sealevel;temperature;humidity
13080;BME280;6606;49.154;9.280;2022-12-07T00:00:13;99798.38;;;4.28;100.00
13080;BME280;6606;49.154;9.280;2022-12-07T00:02:40;99793.22;;;4.25;100.00
13080;BME280;6606;49.154;9.280;2022-12-07T00:05:07;99789.81;;;4.20;100.00
13080;BME280;6606;49.154;9.280;2022-12-07T00:07:34;99793.28;;;4.22;100.00
13080;BME280;6606;49.154;9.280;2022-12-07T00:10:02;99793.28;;;4.22;100.00
13080;BME280;6606;49.154;9.280;2022-12-07T00:12:29;99793.50;;;4.13;100.00
13080;BME280;6606;49.154;9.280;2022-12-07T00:14:55;99784.88;;;4.08;100.00
13080;BME280;6606;49.154;9.280;2022-12-07T00:17:22;99786.44;;;4.15;100.00
13080;BME280;6606;49.154;9.280;2022-12-07T00:19:49;99784.72;;;4.14;100.00
13080;BME280;6606;49.154;9.280;2022-12-07T00:22:15;99781.56;;;4.00;100.00
13080;BME280;6606;49.154;9.280;2022-12-07T00:24:42;99781.50;;;4.01;100.00
13080;BME280;6606;49.154;9.280;2022-12-07T00:27:10;99776.31;;;4.00;100.00
13080;BME280;6606;49.154;9.280;2022-12-07T00:29:37;99781.47;;;4.03;100.00
13080;BME280;6606;49.154;9.280;2022-12-07T00:32:04;99771.91;;;4.00;100.00
13080;BME280;6606;49.154;9.280;2022-12-07T00:34:31;99783.13;;;4.07;100.00
13080;BME280;6606;49.154;9.280;2022-12-07T00:36:57;99775.25;;;4.07;100.00
13080;BME280;6606;49.154;9.280;2022-12-07T00:39:24;99778.63;;;4.12;100.00
13080;BME280;6606;49.154;9.280;2022-12-07T00:41:51;99783.09;;;4.08;100.00
13080;BME280;6606;49.154;9.280;2022-12-07T00:44:19;99777.69;;;4.16;100.00
13080;BME280;6606;49.154;9.280;2022-12-07T00:46:45;99780.25;;;4.17;100.00
13080;BME280;6606;49.154;9.280;2022-12-07T00:49:12;99779.47;;;4.14;100.00
13080;BME280;6606;49.154;9.280;2022-12-07T00:51:39;99775.94;;;4.15;100.00
13080;BME280;6606;49.154;9.280;2022-12-07T00:54:06;99773.41;;;4.12;100.00
13080;BME280;6606;49.154;9.280;2022-12-07T00:56:32;99778.03;;;4.01;100.00
13080;BME280;6606;49.154;9.280;2022-12-07T00:59:01;99779.41;;;4.17;100.00
13080;BME280;6606;49.154;9.280;2022-12-07T01:01:31;99783.78;;;4.16;100.00
13080;BME280;6606;49.154;9.280;2022-12-07T01:03:58;99782.78;;;4.22;100.00
13080;BME280;6606;49.154;9.280;2022-12-07T01:06:27;99783.63;;;4.24;100.00
13080;BME280;6606;49.154;9.280;2022-12-07T01:08:54;99777.75;;;4.13;100.00
13080;BME280;6606;49.154;9.280;2022-12-07T01:11:23;99773.44;;;4.10;100.00
13080;BME280;6606;49.154;9.280;2022-12-07T01:13:50;99773.13;;;4.24;100.00
13080;BME280;6606;49.154;9.280;2022-12-07T01:16:17;99772.16;;;4.28;100.00
13080;BME280;6606;49.154;9.280;2022-12-07T01:18:48;99773.81;;;4.32;100.00
13080;BME280;6606;49.154;9.280;2022-12-07T01:21:17;99772.28;;;4.24;100.00
13080;BME280;6606;49.154;9.280;2022-12-07T01:23:46;99773.06;;;4.26;100.00
13080;BME280;6606;49.154;9.280;2022-12-07T01:26:15;99772.44;;;4.16;100.00
13080;BME280;6606;49.154;9.280;2022-12-07T01:28:42;99775.06;;;4.16;100.00
13080;BME280;6606;49.154;9.280;2022-12-07T01:31:11;99776.03;;;4.12;100.00
13080;BME280;6606;49.154;9.280;2022-12-07T01:33:41;99773.56;;;4.04;100.00
13080;BME280;6606;49.154;9.280;2022-12-07T01:36:15;99788.03;;;3.82;100.00
13080;BME280;6606;49.154;9.280;2022-12-07T01:38:43;99786.84;;;3.96;100.00
13080;BME280;6606;49.154;9.280;2022-12-07T01:41:10;99795.34;;;4.08;100.00
13080;BME280;6606;49.154;9.280;2022-12-07T01:44:13;99787.19;;;4.20;100.00
13080;BME280;6606;49.154;9.280;2022-12-07T01:46:41;99798.38;;;4.28;100.00
13080;BME280;6606;49.154;9.280;2022-12-07T01:49:10;99787.78;;;4.33;100.00
13080;BME280;6606;49.154;9.280;2022-12-07T01:51:41;99781.59;;;4.35;100.00
13080;BME280;6606;49.154;9.280;2022-12-07T01:54:11;99783.38;;;4.35;100.00
13080;BME280;6606;49.154;9.280;2022-12-07T01:56:40;99780.69;;;4.36;100.00
13080;BME280;6606;49.154;9.280;2022-12-07T01:59:08;99780.66;;;4.39;100.00
13080;BME280;6606;49.154;9.280;2022-12-07T02:01:36;99778.97;;;4.37;100.00
13080;BME280;6606;49.154;9.280;2022-12-07T02:04:03;99782.38;;;4.40;100.00
13080;BME280;6606;49.154;9.280;2022-12-07T02:06:30;99781.84;;;4.26;100.00
13080;BME280;6606;49.154;9.280;2022-12-07T02:08:56;99780.25;;;4.19;100.00
13080;BME280;6606;49.154;9.280;2022-12-07T02:11:23;99776.63;;;4.23;100.00
13080;BME280;6606;49.154;9.280;2022-12-07T02:13:50;99766.91;;;4.28;100.00
13080;BME280;6606;49.154;9.280;2022-12-07T02:16:26;99760.44;;;4.06;100.00
13080;BME280;6606;49.154;9.280;2022-12-07T02:19:05;99754.34;;;4.04;100.00
13080;BME280;6606;49.154;9.280;2022-12-07T02:21:40;99753.41;;;4.08;100.00
13080;BME280;6606;49.154;9.280;2022-12-07T02:24:19;99752.59;;;4.04;100.00
13080;BME280;6606;49.154;9.280;2022-12-07T02:27:29;99745.63;;;4.03;100.00
13080;BME280;6606;49.154;9.280;2022-12-07T02:30:06;99741.97;;;4.10;100.00
13080;BME280;6606;49.154;9.280;2022-12-07T02:32:42;99742.94;;;4.05;100.00
13080;BME280;6606;49.154;9.280;2022-12-07T02:35:12;99746.28;;;4.13;100.00
13080;BME280;6606;49.154;9.280;2022-12-07T02:37:47;99749.72;;;4.15;100.00
13080;BME280;6606;49.154;9.280;2022-12-07T02:40:19;99756.72;;;4.16;100.00
13080;BME280;6606;49.154;9.280;2022-12-07T02:42:50;99757.47;;;4.21;100.00
13080;BME280;6606;49.154;9.280;2022-12-07T02:45:24;99756.63;;;4.19;100.00
13080;BME280;6606;49.154;9.280;2022-12-07T02:47:56;99762.06;;;4.10;100.00
13080;BME280;6606;49.154;9.280;2022-12-07T02:50:25;99763.47;;;4.26;100.00
13080;BME280;6606;49.154;9.280;2022-12-07T02:52:52;99758.97;;;4.31;100.00
13080;BME280;6606;49.154;9.280;2022-12-07T02:55:24;99748.53;;;4.28;100.00
13080;BME280;6606;49.154;9.280;2022-12-07T02:58:13;99744.91;;;4.34;100.00
13080;BME280;6606;49.154;9.280;2022-12-07T03:00:53;99745.91;;;4.28;100.00
13080;BME280;6606;49.154;9.280;2022-12-07T03:03:22;99747.56;;;4.32;100.00
13080;BME280;6606;49.154;9.280;2022-12-07T03:05:59;99718.13;;;4.21;100.00
13080;BME280;6606;49.154;9.280;2022-12-07T03:08:31;99715.84;;;4.06;100.00
13080;BME280;6606;49.154;9.280;2022-12-07T03:11:04;99715.53;;;4.18;100.00
13080;BME280;6606;49.154;9.280;2022-12-07T03:13:37;99714.44;;;4.28;100.00
13080;BME280;6606;49.154;9.280;2022-12-07T03:16:11;99709.13;;;4.31;100.00
13080;BME280;6606;49.154;9.280;2022-12-07T03:18:43;99702.22;;;4.27;100.00
13080;BME280;6606;49.154;9.280;2022-12-07T03:21:14;99700.28;;;4.35;100.00
13080;BME280;6606;49.154;9.280;2022-12-07T03:23:45;99686.91;;;4.09;100.00
13080;BME280;6606;49.154;9.280;2022-12-07T03:26:15;99693.94;;;4.08;100.00
13080;BME280;6606;49.154;9.280;2022-12-07T03:28:52;99692.00;;;4.16;100.00
13080;BME280;6606;49.154;9.280;2022-12-07T03:31:25;99698.81;;;4.24;100.00
13080;BME280;6606;49.154;9.280;2022-12-07T03:34:01;99696.50;;;4.10;100.00
13080;BME280;6606;49.154;9.280;2022-12-07T03:36:34;99720.06;;;4.13;100.00
13080;BME280;6606;49.154;9.280;2022-12-07T03:39:07;99730.06;;;3.94;100.00
13080;BME280;6606;49.154;9.280;2022-12-07T03:41:38;99735.31;;;3.95;100.00
13080;BME280;6606;49.154;9.280;2022-12-07T03:44:05;99727.97;;;4.10;100.00
13080;BME280;6606;49.154;9.280;2022-12-07T03:46:40;99726.78;;;4.23;100.00
13080;BME280;6606;49.154;9.280;2022-12-07T03:49:13;99717.03;;;4.30;100.00
13080;BME280;6606;49.154;9.280;2022-12-07T03:51:46;99701.38;;;4.25;100.00
13080;BME280;6606;49.154;9.280;2022-12-07T03:54:21;99693.59;;;4.22;100.00
13080;BME280;6606;49.154;9.280;2022-12-07T03:56:51;99697.00;;;4.26;100.00
13080;BME280;6606;49.154;9.280;2022-12-07T03:59:19;99709.06;;;4.33;100.00
13080;BME280;6606;49.154;9.280;2022-12-07T04:01:53;99724.22;;;4.22;100.00
13080;BME280;6606;49.154;9.280;2022-12-07T04:04:21;99741.03;;;4.13;100.00
13080;BME280;6606;49.154;9.280;2022-12-07T04:06:48;99728.72;;;4.15;100.00
13080;BME280;6606;49.154;9.280;2022-12-07T04:09:15;99729.47;;;4.22;100.00
13080;BME280;6606;49.154;9.280;2022-12-07T04:11:42;99732.34;;;4.11;100.00
13080;BME280;6606;49.154;9.280;2022-12-07T04:14:09;99727.09;;;4.11;100.00
13080;BME280;6606;49.154;9.280;2022-12-07T04:16:45;99730.66;;;4.08;100.00
13080;BME280;6606;49.154;9.280;2022-12-07T04:19:14;99726.94;;;4.17;100.00
13080;BME280;6606;49.154;9.280;2022-12-07T04:21:41;99723.28;;;4.24;100.00
13080;BME280;6606;49.154;9.280;2022-12-07T04:24:08;99726.78;;;4.23;100.00
13080;BME280;6606;49.154;9.280;2022-12-07T04:26:35;99722.28;;;4.28;100.00
13080;BME280;6606;49.154;9.280;2022-12-07T04:29:02;99723.97;;;4.32;100.00
13080;BME280;6606;49.154;9.280;2022-12-07T04:31:29;99714.31;;;4.34;100.00
13080;BME280;6606;49.154;9.280;2022-12-07T04:33:55;99718.63;;;4.37;100.00
13080;BME280;6606;49.154;9.280;2022-12-07T04:36:23;99719.56;;;4.34;100.00
13080;BME280;6606;49.154;9.280;2022-12-07T04:38:52;99714.25;;;4.36;100.00
13080;BME280;6606;49.154;9.280;2022-12-07T04:41:19;99711.59;;;4.37;100.00
13080;BME280;6606;49.154;9.280;2022-12-07T04:43:52;99710.78;;;4.35;100.00
13080;BME280;6606;49.154;9.280;2022-12-07T04:46:19;99700.50;;;4.26;100.00
13080;BME280;6606;49.154;9.280;2022-12-07T04:48:46;99697.13;;;4.21;100.00
13080;BME280;6606;49.154;9.280;2022-12-07T04:51:13;99698.84;;;4.22;100.00
13080;BME280;6606;49.154;9.280;2022-12-07T04:53:42;99690.03;;;4.26;100.00
13080;BME280;6606;49.154;9.280;2022-12-07T04:56:08;99690.06;;;4.23;100.00
13080;BME280;6606;49.154;9.280;2022-12-07T04:58:35;99693.53;;;4.25;100.00
13080;BME280;6606;49.154;9.280;2022-12-07T05:01:02;99711.22;;;4.17;100.00
13080;BME280;6606;49.154;9.280;2022-12-07T05:03:28;99713.06;;;4.13;100.00
13080;BME280;6606;49.154;9.280;2022-12-07T05:05:55;99711.94;;;4.24;100.00
13080;BME280;6606;49.154;9.280;2022-12-07T05:08:22;99717.88;;;4.30;100.00
13080;BME280;6606;49.154;9.280;2022-12-07T05:10:50;99705.84;;;4.22;100.00
13080;BME280;6606;49.154;9.280;2022-12-07T05:13:16;99707.75;;;4.15;100.00
13080;BME280;6606;49.154;9.280;2022-12-07T05:15:43;99708.66;;;4.14;100.00
13080;BME280;6606;49.154;9.280;2022-12-07T05:18:10;99714.59;;;4.22;100.00
13080;BME280;6606;49.154;9.280;2022-12-07T05:20:37;99705.94;;;4.18;100.00
13080;BME280;6606;49.154;9.280;2022-12-07T05:23:04;99711.88;;;4.27;100.00
13080;BME280;6606;49.154;9.280;2022-12-07T05:25:31;99721.38;;;4.31;100.00
13080;BME280;6606;49.154;9.280;2022-12-07T05:27:59;99726.66;;;4.29;100.00
13080;BME280;6606;49.154;9.280;2022-12-07T05:30:26;99707.22;;;4.36;100.00
13080;BME280;6606;49.154;9.280;2022-12-07T05:32:53;99711.59;;;4.37;100.00
13080;BME280;6606;49.154;9.280;2022-12-07T05:35:20;99703.94;;;4.28;100.00
13080;BME280;6606;49.154;9.280;2022-12-07T05:37:47;99695.84;;;4.37;100.00
13080;BME280;6606;49.154;9.280;2022-12-07T05:40:14;99689.78;;;4.35;100.00
13080;BME280;6606;49.154;9.280;2022-12-07T05:42:41;99695.03;;;4.35;100.00
13080;BME280;6606;49.154;9.280;2022-12-07T05:45:10;99700.34;;;4.32;100.00
13080;BME280;6606;49.154;9.280;2022-12-07T05:47:37;99703.00;;;4.31;100.00
13080;BME280;6606;49.154;9.280;2022-12-07T05:50:05;99698.16;;;4.14;100.00
13080;BME280;6606;49.154;9.280;2022-12-07T05:52:32;99693.69;;;4.19;100.00
13080;BME280;6606;49.154;9.280;2022-12-07T05:54:59;99696.94;;;4.29;100.00
13080;BME280;6606;49.154;9.280;2022-12-07T05:57:25;99702.19;;;4.29;100.00
13080;BME280;6606;49.154;9.280;2022-12-07T05:59:52;99697.81;;;4.29;100.00
13080;BME280;6606;49.154;9.280;2022-12-07T06:02:19;99709.41;;;4.19;100.00
13080;BME280;6606;49.154;9.280;2022-12-07T06:04:46;99702.59;;;4.12;100.00
13080;BME280;6606;49.154;9.280;2022-12-07T06:07:14;99701.47;;;4.22;100.00
13080;BME280;6606;49.154;9.280;2022-12-07T06:09:41;99702.59;;;4.12;100.00
13080;BME280;6606;49.154;9.280;2022-12-07T06:12:09;99705.88;;;4.20;100.00
13080;BME280;6606;49.154;9.280;2022-12-07T06:14:53;99712.69;;;4.29;100.00
13080;BME280;6606;49.154;9.280;2022-12-07T06:17:21;99709.34;;;4.22;100.00
13080;BME280;6606;49.154;9.280;2022-12-07T06:19:48;99703.00;;;4.31;100.00
13080;BME280;6606;49.154;9.280;2022-12-07T06:22:15;99701.22;;;4.33;100.00
13080;BME280;6606;49.154;9.280;2022-12-07T06:24:42;99698.94;;;4.19;100.00
13080;BME280;6606;49.154;9.280;2022-12-07T06:27:09;99702.31;;;4.24;100.00
13080;BME280;6606;49.154;9.280;2022-12-07T06:29:36;99701.31;;;4.28;100.00
13080;BME280;6606;49.154;9.280;2022-12-07T06:32:03;99704.06;;;4.24;100.00
13080;BME280;6606;49.154;9.280;2022-12-07T06:34:32;99696.19;;;4.24;100.00
13080;BME280;6606;49.154;9.280;2022-12-07T06:36:58;99693.53;;;4.25;100.00
13080;BME280;6606;49.154;9.280;2022-12-07T06:39:27;99704.09;;;4.22;100.00
13080;BME280;6606;49.154;9.280;2022-12-07T06:41:54;99702.72;;;4.06;100.00
13080;BME280;6606;49.154;9.280;2022-12-07T06:44:22;99713.97;;;4.11;100.00
13080;BME280;6606;49.154;9.280;2022-12-07T06:46:49;99720.78;;;4.18;100.00
13080;BME280;6606;49.154;9.280;2022-12-07T06:49:16;99722.44;;;4.24;100.00
13080;BME280;6606;49.154;9.280;2022-12-07T06:51:45;99719.63;;;4.31;100.00
13080;BME280;6606;49.154;9.280;2022-12-07T06:54:13;99720.34;;;4.36;100.00
13080;BME280;6606;49.154;9.280;2022-12-07T06:56:40;99728.31;;;4.33;100.00
13080;BME280;6606;49.154;9.280;2022-12-07T06:59:07;99722.19;;;4.34;100.00
13080;BME280;6606;49.154;9.280;2022-12-07T07:01:35;99724.63;;;4.40;100.00
13080;BME280;6606;49.154;9.280;2022-12-07T07:04:02;99721.19;;;4.38;100.00
13080;BME280;6606;49.154;9.280;2022-12-07T07:06:29;99724.63;;;4.40;100.00
13080;BME280;6606;49.154;9.280;2022-12-07T07:08:57;99726.50;;;4.35;100.00
13080;BME280;6606;49.154;9.280;2022-12-07T07:11:24;99731.84;;;4.32;100.00
13080;BME280;6606;49.154;9.280;2022-12-07T07:13:50;99726.50;;;4.35;100.00
13080;BME280;6606;49.154;9.280;2022-12-07T07:16:17;99722.84;;;4.43;100.00
13080;BME280;6606;49.154;9.280;2022-12-07T07:18:44;99722.84;;;4.43;100.00
13080;BME280;6606;49.154;9.280;2022-12-07T07:21:10;99722.00;;;4.42;100.00
13080;BME280;6606;49.154;9.280;2022-12-07T07:23:37;99726.44;;;4.38;100.00
13080;BME280;6606;49.154;9.280;2022-12-07T07:26:05;99728.94;;;4.45;100.00
13080;BME280;6606;49.154;9.280;2022-12-07T07:28:32;99728.28;;;4.35;100.00
13080;BME280;6606;49.154;9.280;2022-12-07T07:30:59;99734.91;;;4.50;100.00
13080;BME280;6606;49.154;9.280;2022-12-07T07:33:25;99729.78;;;4.45;100.00
13080;BME280;6606;49.154;9.280;2022-12-07T07:35:52;99736.00;;;4.41;100.00
13080;BME280;6606;49.154;9.280;2022-12-07T07:38:19;99742.06;;;4.45;100.00
13080;BME280;6606;49.154;9.280;2022-12-07T07:40:45;99742.72;;;4.53;100.00
13080;BME280;6606;49.154;9.280;2022-12-07T07:43:14;99736.56;;;4.54;100.00
13080;BME280;6606;49.154;9.280;2022-12-07T07:45:40;99741.66;;;4.60;100.00
13080;BME280;6606;49.154;9.280;2022-12-07T07:48:07;99740.75;;;4.61;100.00
13080;BME280;6606;49.154;9.280;2022-12-07T07:50:34;99732.03;;;4.60;100.00
13080;BME280;6606;49.154;9.280;2022-12-07T07:53:00;99736.47;;;4.58;100.00
13080;BME280;6606;49.154;9.280;2022-12-07T07:55:27;99738.22;;;4.58;100.00
13080;BME280;6606;49.154;9.280;2022-12-07T07:57:54;99743.16;;;4.70;100.00
13080;BME280;6606;49.154;9.280;2022-12-07T08:00:22;99741.53;;;4.65;100.00
13080;BME280;6606;49.154;9.280;2022-12-07T08:02:49;99737.75;;;4.76;100.00
13080;BME280;6606;49.154;9.280;2022-12-07T08:05:16;99742.84;;;4.82;100.00
13080;BME280;6606;49.154;9.280;2022-12-07T08:07:43;99739.16;;;4.90;100.00
13080;BME280;6606;49.154;9.280;2022-12-07T08:10:11;99743.16;;;4.70;100.00
13080;BME280;6606;49.154;9.280;2022-12-07T08:12:39;99743.59;;;4.88;100.00
13080;BME280;6606;49.154;9.280;2022-12-07T08:15:29;99752.25;;;4.91;100.00
13080;BME280;6606;49.154;9.280;2022-12-07T08:17:56;99749.50;;;4.96;100.00
13080;BME280;6606;49.154;9.280;2022-12-07T08:20:23;99758.50;;;5.20;100.00
13080;BME280;6606;49.154;9.280;2022-12-07T08:22:49;99754.09;;;5.20;100.00
13080;BME280;6606;49.154;9.280;2022-12-07T08:25:16;99752.22;;;5.25;100.00
13080;BME280;6606;49.154;9.280;2022-12-07T08:27:43;99756.31;;;5.36;100.00
13080;BME280;6606;49.154;9.280;2022-12-07T08:30:10;99764.97;;;5.08;100.00
13080;BME280;6606;49.154;9.280;2022-12-07T08:32:39;99769.22;;;5.11;100.00
13080;BME280;6606;49.154;9.280;2022-12-07T08:35:06;99761.03;;;5.23;100.00
13080;BME280;6606;49.154;9.280;2022-12-07T08:37:33;99771.75;;;5.15;100.00
13080;BME280;6606;49.154;9.280;2022-12-07T08:40:00;99754.91;;;5.24;100.00
13080;BME280;6606;49.154;9.280;2022-12-07T08:42:26;99758.97;;;5.34;100.00
13080;BME280;6606;49.154;9.280;2022-12-07T08:44:55;99755.91;;;5.18;100.00
13080;BME280;6606;49.154;9.280;2022-12-07T08:47:23;99760.16;;;5.24;100.00
13080;BME280;6606;49.154;9.280;2022-12-07T08:49:52;99761.63;;;5.00;100.00
13080;BME280;6606;49.154;9.280;2022-12-07T08:52:19;99762.38;;;5.05;100.00
13080;BME280;6606;49.154;9.280;2022-12-07T08:54:46;99771.66;;;4.85;100.00
13080;BME280;6606;49.154;9.280;2022-12-07T08:57:13;99764.31;;;4.64;100.00
13080;BME280;6606;49.154;9.280;2022-12-07T08:59:40;99760.47;;;4.77;100.00
13080;BME280;6606;49.154;9.280;2022-12-07T09:02:06;99765.47;;;4.87;100.00
13080;BME280;6606;49.154;9.280;2022-12-07T09:04:33;99768.34;;;4.77;100.00
13080;BME280;6606;49.154;9.280;2022-12-07T09:07:01;99757.28;;;5.00;100.00
13080;BME280;6606;49.154;9.280;2022-12-07T09:09:29;99762.31;;;5.08;100.00
13080;BME280;6606;49.154;9.280;2022-12-07T09:11:56;99764.53;;;5.23;100.00
13080;BME280;6606;49.154;9.280;2022-12-07T09:14:23;99764.97;;;5.39;100.00
13080;BME280;6606;49.154;9.280;2022-12-07T09:16:50;99766.09;;;5.31;100.00
13080;BME280;6606;49.154;9.280;2022-12-07T09:19:17;99757.34;;;5.61;100.00
13080;BME280;6606;49.154;9.280;2022-12-07T09:21:43;99761.78;;;5.59;100.00
13080;BME280;6606;49.154;9.280;2022-12-07T09:24:12;99771.03;;;5.43;100.00
13080;BME280;6606;49.154;9.280;2022-12-07T09:26:39;99759.19;;;5.58;100.00
13080;BME280;6606;49.154;9.280;2022-12-07T09:29:06;99766.34;;;5.53;100.00
13080;BME280;6606;49.154;9.280;2022-12-07T09:31:32;99758.72;;;5.75;100.00
13080;BME280;6606;49.154;9.280;2022-12-07T09:34:00;99758.31;;;5.88;100.00
13080;BME280;6606;49.154;9.280;2022-12-07T09:36:27;99763.59;;;5.87;100.00
13080;BME280;6606;49.154;9.280;2022-12-07T09:38:54;99758.94;;;5.98;100.00
13080;BME280;6606;49.154;9.280;2022-12-07T09:41:24;99753.59;;;6.01;100.00
13080;BME280;6606;49.154;9.280;2022-12-07T09:43:52;99758.84;;;6.01;100.00
13080;BME280;6606;49.154;9.280;2022-12-07T09:46:20;99755.56;;;6.23;100.00
13080;BME280;6606;49.154;9.280;2022-12-07T09:48:48;99757.34;;;6.21;100.00
13080;BME280;6606;49.154;9.280;2022-12-07T09:51:18;99769.78;;;6.15;100.00
13080;BME280;6606;49.154;9.280;2022-12-07T09:53:45;99757.78;;;6.35;100.00
13080;BME280;6606;49.154;9.280;2022-12-07T09:56:14;99754.16;;;6.39;100.00
13080;BME280;6606;49.154;9.280;2022-12-07T09:58:43;99742.03;;;6.62;100.00
13080;BME280;6606;49.154;9.280;2022-12-07T10:01:12;99739.69;;;6.79;100.00
13080;BME280;6606;49.154;9.280;2022-12-07T10:03:42;99735.69;;;6.94;100.00
13080;BME280;6606;49.154;9.280;2022-12-07T10:06:12;99740.56;;;7.04;100.00
13080;BME280;6606;49.154;9.280;2022-12-07T10:08:39;99737.59;;;7.14;100.00
13080;BME280;6606;49.154;9.280;2022-12-07T10:11:09;99742.41;;;6.76;100.00
13080;BME280;6606;49.154;9.280;2022-12-07T10:13:38;99741.50;;;6.50;100.00
13080;BME280;6606;49.154;9.280;2022-12-07T10:16:09;99744.19;;;6.49;100.00
13080;BME280;6606;49.154;9.280;2022-12-07T10:18:54;99733.78;;;6.46;100.00
13080;BME280;6606;49.154;9.280;2022-12-07T10:21:22;99729.97;;;6.54;100.00
13080;BME280;6606;49.154;9.280;2022-12-07T10:24:00;99729.16;;;6.52;100.00
13080;BME280;6606;49.154;9.280;2022-12-07T10:26:31;99730.94;;;6.24;100.00
13080;BME280;6606;49.154;9.280;2022-12-07T10:29:12;99727.34;;;6.26;100.00
13080;BME280;6606;49.154;9.280;2022-12-07T10:31:42;99728.94;;;6.32;100.00
13080;BME280;6606;49.154;9.280;2022-12-07T10:34:22;99729.19;;;5.96;100.00
13080;BME280;6606;49.154;9.280;2022-12-07T10:36:51;99735.06;;;6.04;100.00
13080;BME280;6606;49.154;9.280;2022-12-07T10:39:19;99727.44;;;5.95;100.00
13080;BME280;6606;49.154;9.280;2022-12-07T10:41:53;99720.28;;;6.00;100.00
13080;BME280;6606;49.154;9.280;2022-12-07T10:44:22;99714.84;;;6.06;100.00
13080;BME280;6606;49.154;9.280;2022-12-07T10:46:59;99722.34;;;6.19;100.00
13080;BME280;6606;49.154;9.280;2022-12-07T10:52:45;99718.59;;;5.98;100.00
13080;BME280;6606;49.154;9.280;2022-12-07T10:55:21;99712.03;;;5.83;100.00
13080;BME280;6606;49.154;9.280;2022-12-07T10:58:03;99711.16;;;5.82;100.00
13080;BME280;6606;49.154;9.280;2022-12-07T11:00:37;99707.38;;;5.91;100.00
13080;BME280;6606;49.154;9.280;2022-12-07T11:03:36;99706.34;;;5.98;100.00
13080;BME280;6606;49.154;9.280;2022-12-07T11:06:22;99711.66;;;5.95;100.00
13080;BME280;6606;49.154;9.280;2022-12-07T11:09:03;99708.38;;;5.87;100.00
13080;BME280;6606;49.154;9.280;2022-12-07T11:11:33;99702.19;;;5.60;100.00
13080;BME280;6606;49.154;9.280;2022-12-07T11:14:10;99704.56;;;5.38;100.00
13080;BME280;6606;49.154;9.280;2022-12-07T11:16:50;99705.94;;;5.51;100.00
13080;BME280;6606;49.154;9.280;2022-12-07T11:19:40;99697.13;;;5.52;100.00
13080;BME280;6606;49.154;9.280;2022-12-07T11:22:20;99691.78;;;5.55;100.00
13080;BME280;6606;49.154;9.280;2022-12-07T11:24:55;99701.97;;;5.67;100.00
13080;BME280;6606;49.154;9.280;2022-12-07T11:27:32;99699.97;;;5.74;100.00
13080;BME280;6606;49.154;9.280;2022-12-07T11:30:14;99696.13;;;5.86;100.00
13080;BME280;6606;49.154;9.280;2022-12-07T11:33:04;99684.31;;;6.01;100.00
13080;BME280;6606;49.154;9.280;2022-12-07T11:35:47;99679.28;;;5.93;100.00
13080;BME280;6606;49.154;9.280;2022-12-07T11:38:21;99675.84;;;5.89;100.00
13080;BME280;6606;49.154;9.280;2022-12-07T11:40:49;99674.19;;;5.87;100.00
13080;BME280;6606;49.154;9.280;2022-12-07T11:43:22;99673.97;;;5.94;100.00
13080;BME280;6606;49.154;9.280;2022-12-07T11:58:59;99660.47;;;6.58;100.00
13080;BME280;6606;49.154;9.280;2022-12-07T12:01:39;99655.56;;;6.48;100.00
13080;BME280;6606;49.154;9.280;2022-12-07T12:04:20;99654.09;;;6.41;100.00
13080;BME280;6606;49.154;9.280;2022-12-07T12:06:51;99645.38;;;6.64;100.00
13080;BME280;6606;49.154;9.280;2022-12-07T12:09:22;99644.66;;;6.58;100.00
13080;BME280;6606;49.154;9.280;2022-12-07T12:12:07;99643.94;;;6.55;100.00
13080;BME280;6606;49.154;9.280;2022-12-07T12:14:50;99644.59;;;6.62;100.00
13080;BME280;6606;49.154;9.280;2022-12-07T12:17:50;99638.78;;;6.52;100.00
13080;BME280;6606;49.154;9.280;2022-12-07T12:20:24;99646.22;;;6.39;100.00
13080;BME280;6606;49.154;9.280;2022-12-07T12:22:55;99639.28;;;6.10;100.00
13080;BME280;6606;49.154;9.280;2022-12-07T12:25:27;99635.03;;;6.06;100.00
13080;BME280;6606;49.154;9.280;2022-12-07T12:27:56;99635.38;;;5.95;100.00
13080;BME280;6606;49.154;9.280;2022-12-07T12:30:31;99633.53;;;5.99;100.00
13080;BME280;6606;49.154;9.280;2022-12-07T12:33:04;99640.28;;;5.78;100.00
13080;BME280;6606;49.154;9.280;2022-12-07T12:35:32;99638.19;;;5.89;100.00
13080;BME280;6606;49.154;9.280;2022-12-07T12:38:25;99642.81;;;5.81;100.00
13080;BME280;6606;49.154;9.280;2022-12-07T12:40:52;99637.94;;;5.98;100.00
13080;BME280;6606;49.154;9.280;2022-12-07T12:43:45;99636.56;;;6.13;100.00
13080;BME280;6606;49.154;9.280;2022-12-07T12:46:52;99623.97;;;6.23;100.00
13080;BME280;6606;49.154;9.280;2022-12-07T12:52:49;99626.38;;;6.29;100.00
13080;BME280;6606;49.154;9.280;2022-12-07T12:55:20;99617.97;;;6.44;100.00
13080;BME280;6606;49.154;9.280;2022-12-07T12:58:22;99615.28;;;6.71;100.00
13080;BME280;6606;49.154;9.280;2022-12-07T13:03:56;99626.00;;;6.14;100.00
13080;BME280;6606;49.154;9.280;2022-12-07T13:06:35;99623.53;;;6.08;100.00
13080;BME280;6606;49.154;9.280;2022-12-07T13:09:04;99616.47;;;6.10;100.00
13080;BME280;6606;49.154;9.280;2022-12-07T13:11:33;99613.50;;;5.93;100.00
13080;BME280;6606;49.154;9.280;2022-12-07T13:17:08;99601.09;;;5.98;100.00
13080;BME280;6606;49.154;9.280;2022-12-07T13:19:57;99607.03;;;6.03;100.00
13080;BME280;6606;49.154;9.280;2022-12-07T13:22:51;99598.97;;;6.09;100.00
13080;BME280;6606;49.154;9.280;2022-12-07T13:25:22;99607.69;;;6.11;100.00
13080;BME280;6606;49.154;9.280;2022-12-07T13:27:57;99600.16;;;6.01;100.00
13080;BME280;6606;49.154;9.280;2022-12-07T13:30:24;99593.34;;;6.20;100.00
13080;BME280;6606;49.154;9.280;2022-12-07T13:32:52;99592.44;;;6.21;100.00
13080;BME280;6606;49.154;9.280;2022-12-07T13:35:34;99586.97;;;6.27;100.00
13080;BME280;6606;49.154;9.280;2022-12-07T13:38:22;99585.56;;;6.42;100.00
13080;BME280;6606;49.154;9.280;2022-12-07T13:41:12;99586.66;;;6.36;100.00
13080;BME280;6606;49.154;9.280;2022-12-07T13:43:44;99582.66;;;6.50;100.00
13080;BME280;6606;49.154;9.280;2022-12-07T13:46:12;99583.97;;;6.38;100.00
13080;BME280;6606;49.154;9.280;2022-12-07T13:48:45;99588.22;;;6.15;100.00
13080;BME280;6606;49.154;9.280;2022-12-07T13:51:34;99584.41;;;6.24;100.00
13080;BME280;6606;49.154;9.280;2022-12-07T13:54:09;99576.00;;;6.14;100.00